Beijing, China
Current Conditions -  °F | °C
As of 5:00 AM on Tuesday 21 Oct 2014 (Local Time) from ZBAA Reporting Station
Clear Clear  
Wind Chill: 54°   Ceiling: Unl
Heat Index: 54°   Visibility: 6mi
Dew Point: 36°   Wind: 2mph
Humidity: 51%   Direction: 160°SSE
Pressure: 30.24"   Gusts: NA
Location:  39.93°N, 116.4°E
Report Text: ZBAA 202100Z 16001MPS CAVOK 12/02 Q1024 NOSIG
Loading
Personal Weather Stations






























Interactive Weather Map
Tropical Storm Tracking
New forecast layout! Learn more

10-Day Weather Forecast

Advertisements
Track Severe Weather on mobile